createdAt,value
2023-03-30T00:02:11.236Z,71.58
2023-03-30T00:07:18.644Z,71.70
2023-03-30T00:12:28.014Z,71.99
2023-03-30T00:17:35.844Z,71.95
2023-03-30T00:22:45.623Z,71.83
2023-03-30T00:27:53.794Z,71.75
2023-03-30T00:33:01.217Z,71.73
2023-03-30T00:38:08.867Z,71.73
2023-03-30T00:43:16.612Z,71.66
2023-03-30T00:48:28.846Z,71.59
2023-03-30T00:53:40.250Z,71.37
2023-03-30T00:58:49.470Z,71.22
2023-03-30T01:04:01.052Z,71.45
2023-03-30T01:09:08.952Z,71.54
2023-03-30T01:14:18.834Z,70.99
2023-03-30T01:20:09.482Z,70.99
2023-03-30T01:25:38.828Z,72.05
2023-03-30T01:31:06.170Z,72.83
2023-03-30T01:36:46.253Z,72.73
2023-03-30T01:42:01.724Z,72.36
2023-03-30T01:47:18.009Z,72.31
2023-03-30T01:52:32.168Z,72.31
2023-03-30T01:57:45.510Z,72.01
2023-03-30T02:02:59.657Z,71.87
2023-03-30T02:08:13.703Z,71.37
2023-03-30T02:13:24.484Z,71.26
2023-03-30T02:18:32.471Z,71.21
2023-03-30T02:23:44.259Z,71.13
2023-03-30T02:28:53.424Z,71.70
2023-03-30T02:34:11.288Z,71.90
2023-03-30T02:39:31.705Z,72.41
2023-03-30T02:44:50.388Z,72.52
2023-03-30T02:50:01.983Z,72.43
2023-03-30T02:55:19.236Z,72.74
2023-03-30T03:00:31.491Z,73.01
2023-03-30T03:05:39.373Z,73.96
2023-03-30T03:10:46.991Z,73.97
2023-03-30T03:15:56.604Z,74.39
2023-03-30T03:21:05.971Z,74.45
2023-03-30T03:26:14.732Z,74.37
2023-03-30T03:31:24.641Z,74.25
2023-03-30T03:36:33.121Z,74.18
2023-03-30T03:41:40.843Z,74.09
2023-03-30T03:46:48.815Z,74.04
2023-03-30T03:51:56.227Z,74.05
2023-03-30T03:57:04.216Z,74.22
2023-03-30T04:02:12.009Z,74.15
2023-03-30T04:07:19.656Z,74.21
2023-03-30T04:12:27.820Z,74.39
2023-03-30T04:17:35.638Z,74.53
2023-03-30T04:22:46.456Z,74.34
2023-03-30T04:27:54.698Z,74.88
2023-03-30T04:33:05.120Z,75.25
2023-03-30T04:38:13.676Z,75.24
2023-03-30T04:43:23.212Z,74.83
2023-03-30T04:48:30.982Z,75.13
2023-03-30T04:53:40.477Z,75.25
2023-03-30T04:58:48.124Z,75.27
2023-03-30T05:03:55.668Z,75.28
2023-03-30T05:09:03.272Z,75.65
2023-03-30T05:14:10.827Z,75.61
2023-03-30T05:19:19.359Z,75.34
2023-03-30T05:24:27.385Z,74.65
2023-03-30T05:29:34.850Z,74.21
2023-03-30T05:34:42.371Z,73.31
2023-03-30T05:39:51.409Z,73.00
2023-03-30T05:44:58.993Z,72.36
2023-03-30T05:50:11.835Z,72.16
2023-03-30T05:55:19.650Z,71.90
2023-03-30T06:00:27.539Z,71.87
2023-03-30T06:05:35.915Z,71.68
2023-03-30T06:10:43.606Z,71.67
2023-03-30T06:15:51.368Z,71.14
2023-03-30T06:20:58.908Z,70.96
2023-03-30T06:26:07.843Z,70.80
2023-03-30T06:31:15.612Z,70.45
2023-03-30T06:36:44.370Z,70.55
2023-03-30T06:46:15.420Z,69.84
2023-03-30T06:51:23.113Z,69.79
2023-03-30T06:56:30.991Z,69.27
2023-03-30T07:01:38.782Z,69.20
2023-03-30T07:06:46.352Z,68.96
2023-03-30T07:11:56.495Z,68.51
2023-03-30T07:17:04.469Z,68.40
2023-03-30T07:22:12.420Z,67.61
2023-03-30T07:27:20.163Z,67.50
2023-03-30T07:32:28.325Z,67.28
2023-03-30T07:37:37.936Z,66.78
2023-03-30T07:42:45.643Z,66.43
2023-03-30T07:47:53.853Z,65.79
2023-03-30T07:53:01.476Z,65.13
2023-03-30T07:58:09.179Z,64.37
2023-03-30T08:03:17.115Z,63.18
2023-03-30T08:08:25.533Z,63.31
2023-03-30T08:13:33.723Z,63.03
2023-03-30T08:18:43.316Z,62.36
2023-03-30T08:23:51.092Z,61.75
2023-03-30T08:28:58.811Z,61.69
2023-03-30T08:34:08.195Z,61.44
2023-03-30T08:39:16.552Z,60.85
2023-03-30T08:44:35.562Z,60.34
2023-03-30T08:49:49.522Z,59.49
2023-03-30T08:54:58.276Z,58.96
2023-03-30T09:00:27.874Z,58.90
2023-03-30T09:05:39.280Z,57.96
2023-03-30T09:10:51.914Z,58.10
2023-03-30T09:16:04.650Z,57.18
2023-03-30T09:21:15.212Z,56.72
2023-03-30T09:26:30.914Z,56.83
2023-03-30T09:31:44.721Z,55.98
2023-03-30T09:36:59.568Z,55.70
2023-03-30T09:42:20.503Z,55.52
2023-03-30T09:47:30.464Z,55.32
2023-03-30T09:52:40.974Z,55.02
2023-03-30T09:57:49.061Z,54.53
2023-03-30T10:03:03.189Z,53.55
2023-03-30T10:08:25.026Z,52.09
2023-03-30T10:13:37.755Z,52.77
2023-03-30T10:18:47.695Z,52.30
2023-03-30T10:24:08.351Z,52.65
2023-03-30T10:29:19.865Z,52.60
2023-03-30T10:34:41.298Z,52.10
2023-03-30T10:45:29.217Z,52.09
2023-03-30T10:50:46.479Z,52.09
2023-03-30T10:56:03.324Z,52.56
2023-03-30T11:01:20.302Z,52.27
2023-03-30T11:06:33.413Z,51.96
2023-03-30T11:11:47.053Z,52.60
2023-03-30T11:17:00.302Z,52.53
2023-03-30T11:22:13.082Z,51.77
2023-03-30T11:27:28.112Z,51.45
2023-03-30T11:32:45.592Z,51.60
2023-03-30T11:37:59.181Z,51.85
2023-03-30T11:43:06.709Z,51.79
2023-03-30T11:48:30.500Z,52.11
2023-03-30T11:53:50.057Z,51.36
2023-03-30T11:59:06.448Z,51.04
2023-03-30T12:04:17.399Z,51.88
2023-03-30T12:09:29.854Z,52.04
2023-03-30T12:14:56.461Z,52.47
2023-03-30T12:20:13.065Z,52.48
2023-03-30T12:25:30.038Z,53.03
2023-03-30T12:30:45.354Z,52.58
2023-03-30T12:36:01.157Z,52.74
2023-03-30T12:46:26.664Z,52.09
2023-03-30T12:51:51.213Z,52.78
2023-03-30T12:57:04.556Z,52.49
2023-03-30T13:02:32.716Z,52.10
2023-03-30T13:07:43.506Z,53.28
2023-03-30T13:12:51.626Z,52.61
2023-03-30T13:18:04.382Z,52.44
2023-03-30T13:23:35.070Z,52.71
2023-03-30T13:29:05.481Z,53.10
2023-03-30T13:34:22.128Z,53.64
2023-03-30T13:39:35.916Z,53.82
2023-03-30T13:44:57.380Z,53.73
2023-03-30T13:50:08.515Z,53.95
2023-03-30T13:55:33.126Z,53.72
2023-03-30T14:00:48.593Z,53.78
2023-03-30T14:06:04.551Z,53.92
2023-03-30T14:11:19.362Z,53.67
2023-03-30T14:16:28.726Z,54.26
2023-03-30T14:21:38.114Z,55.08
2023-03-30T14:26:48.125Z,55.49
2023-03-30T14:32:07.151Z,55.64
2023-03-30T14:37:19.092Z,55.96
2023-03-30T14:42:34.280Z,55.88
2023-03-30T14:47:42.453Z,55.93
2023-03-30T14:52:52.682Z,56.16
2023-03-30T14:58:01.247Z,56.29
2023-03-30T15:03:19.605Z,56.84
2023-03-30T15:08:34.850Z,56.99
2023-03-30T15:13:45.844Z,56.91
2023-03-30T15:18:54.641Z,56.97
2023-03-30T15:24:03.453Z,57.15
2023-03-30T15:29:12.035Z,57.34
2023-03-30T15:34:22.564Z,57.56
2023-03-30T15:39:36.537Z,57.78
2023-03-30T15:44:44.904Z,59.76
2023-03-30T15:49:53.741Z,63.10
2023-03-30T15:55:08.729Z,65.38
2023-03-30T16:00:20.767Z,66.31
2023-03-30T16:05:30.337Z,66.71
2023-03-30T16:10:40.570Z,67.24
2023-03-30T16:15:48.931Z,68.05
2023-03-30T16:20:56.606Z,69.08
2023-03-30T16:26:04.293Z,69.64
2023-03-30T16:31:18.540Z,69.92
2023-03-30T16:36:28.014Z,69.90
2023-03-30T16:41:35.561Z,70.17
2023-03-30T16:46:43.694Z,69.87
2023-03-30T16:51:52.600Z,69.95
2023-03-30T16:57:02.552Z,69.77
2023-03-30T17:02:16.930Z,69.69
2023-03-30T17:07:26.909Z,68.93
2023-03-30T17:12:35.351Z,68.37
2023-03-30T17:17:42.966Z,68.41
2023-03-30T17:22:51.179Z,69.24
2023-03-30T17:27:59.931Z,70.96
2023-03-30T17:33:11.122Z,72.18
2023-03-30T17:38:19.728Z,72.99
2023-03-30T17:43:27.645Z,73.51
2023-03-30T17:48:35.310Z,74.42
2023-03-30T17:53:43.795Z,74.60
2023-03-30T17:58:53.515Z,75.34
2023-03-30T18:04:01.246Z,75.41
2023-03-30T18:09:11.659Z,76.06
2023-03-30T18:14:19.868Z,76.16
2023-03-30T18:19:28.937Z,76.29
2023-03-30T18:24:36.678Z,77.04
2023-03-30T18:29:44.279Z,77.30
2023-03-30T18:34:51.879Z,77.81
2023-03-30T18:45:36.211Z,78.25
2023-03-30T18:50:45.922Z,78.17
2023-03-30T18:55:57.429Z,78.28
2023-03-30T19:01:07.109Z,78.68
2023-03-30T19:06:20.021Z,78.93
2023-03-30T19:11:28.710Z,79.79
2023-03-30T19:16:36.645Z,80.22
2023-03-30T19:21:46.505Z,80.13
2023-03-30T19:26:54.019Z,80.23
2023-03-30T19:32:01.919Z,79.93
2023-03-30T19:37:09.421Z,80.17
2023-03-30T19:42:18.061Z,80.38
2023-03-30T19:47:29.078Z,80.76
2023-03-30T19:52:37.330Z,80.60
2023-03-30T19:57:45.001Z,80.71
2023-03-30T20:02:55.448Z,80.59
2023-03-30T20:08:07.998Z,80.71
2023-03-30T20:13:22.134Z,80.50
2023-03-30T20:18:31.277Z,80.26
2023-03-30T20:23:38.511Z,80.14
2023-03-30T20:28:46.146Z,80.21
2023-03-30T20:33:54.856Z,80.06
2023-03-30T20:39:02.346Z,79.91
2023-03-30T20:44:12.908Z,80.10
2023-03-30T20:49:20.664Z,80.04
2023-03-30T20:54:29.133Z,79.94
2023-03-30T20:59:36.702Z,79.93
2023-03-30T21:04:45.606Z,80.24
2023-03-30T21:09:53.568Z,80.53
2023-03-30T21:15:01.054Z,80.28
2023-03-30T21:20:11.242Z,80.39
2023-03-30T21:25:19.074Z,80.32
2023-03-30T21:30:28.759Z,80.23
2023-03-30T21:35:36.366Z,80.31
2023-03-30T21:40:44.439Z,80.28
2023-03-30T21:45:57.302Z,80.32
2023-03-30T21:51:07.610Z,80.31
2023-03-30T21:56:16.788Z,80.55
2023-03-30T22:01:25.337Z,80.53
2023-03-30T22:06:33.351Z,80.49
2023-03-30T22:11:41.308Z,80.31
2023-03-30T22:16:49.262Z,80.37
2023-03-30T22:21:57.257Z,80.86
2023-03-30T22:27:05.185Z,81.05
2023-03-30T22:32:12.639Z,81.29
2023-03-30T22:37:20.473Z,81.47
2023-03-30T22:42:28.113Z,81.43
2023-03-30T22:47:35.849Z,81.37
2023-03-30T22:52:43.168Z,81.67
2023-03-30T22:57:52.811Z,81.66
2023-03-30T23:03:00.813Z,82.39
2023-03-30T23:08:09.540Z,82.81
2023-03-30T23:13:17.085Z,82.89
2023-03-30T23:18:24.526Z,83.21
2023-03-30T23:23:32.206Z,83.46
2023-03-30T23:28:41.647Z,83.97
2023-03-30T23:33:49.549Z,84.26
2023-03-30T23:38:57.348Z,84.19
2023-03-30T23:44:05.060Z,84.37
2023-03-30T23:49:13.710Z,84.43
2023-03-30T23:54:25.735Z,84.37
2023-03-30T23:59:33.869Z,84.30
